createdAt,value
2022-11-25T00:00:26.848Z,39.65
2022-11-25T00:05:28.409Z,39.85
2022-11-25T00:10:30.586Z,42.15
2022-11-25T00:15:31.530Z,33.00
2022-11-25T00:20:32.333Z,36.75
2022-11-25T00:25:34.458Z,37.63
2022-11-25T00:30:35.231Z,30.58
2022-11-25T00:35:36.209Z,31.75
2022-11-25T00:40:38.341Z,32.97
2022-11-25T00:45:39.181Z,33.45
2022-11-25T00:50:40.159Z,33.22
2022-11-25T00:55:56.239Z,31.88
2022-11-25T01:01:02.388Z,29.27
2022-11-25T01:06:04.123Z,28.73
2022-11-25T01:11:08.854Z,26.02
2022-11-25T01:16:12.700Z,26.20
2022-11-25T01:21:15.335Z,26.88
2022-11-25T01:26:19.792Z,25.15
2022-11-25T01:31:22.631Z,24.48
2022-11-25T01:36:23.844Z,27.23
2022-11-25T01:41:28.382Z,25.15
2022-11-25T01:46:36.959Z,28.88
2022-11-25T01:51:42.734Z,22.40
2022-11-25T01:56:50.988Z,27.20
2022-11-25T02:01:52.112Z,26.70
2022-11-25T02:07:00.746Z,26.33
2022-11-25T02:12:04.101Z,28.23
2022-11-25T02:17:05.202Z,20.67
2022-11-25T02:22:12.825Z,27.45
2022-11-25T02:27:15.498Z,24.38
2022-11-25T02:32:16.820Z,27.08
2022-11-25T02:37:19.804Z,24.60
2022-11-25T02:42:23.691Z,25.80
2022-11-25T02:47:24.498Z,27.95
2022-11-25T02:52:25.345Z,24.05
2022-11-25T02:57:27.644Z,27.30
2022-11-25T03:02:28.432Z,26.30
2022-11-25T03:07:29.955Z,21.15
2022-11-25T03:12:34.934Z,24.00
2022-11-25T03:17:35.749Z,23.80
2022-11-25T03:22:36.600Z,27.13
2022-11-25T03:27:41.072Z,23.02
2022-11-25T03:32:42.729Z,22.25
2022-11-25T03:37:45.870Z,23.23
2022-11-25T03:42:48.303Z,24.20
2022-11-25T03:47:50.370Z,24.88
2022-11-25T03:52:51.695Z,21.30
2022-11-25T03:57:55.278Z,21.13
2022-11-25T04:02:57.812Z,30.38
2022-11-25T04:07:58.743Z,21.77
2022-11-25T04:13:01.962Z,26.77
2022-11-25T04:18:09.604Z,20.45
2022-11-25T04:23:11.012Z,20.85
2022-11-25T04:28:19.368Z,19.95
2022-11-25T04:33:20.311Z,27.83
2022-11-25T04:38:22.247Z,26.88
2022-11-25T04:43:25.180Z,27.58
2022-11-25T04:48:35.028Z,30.00
2022-11-25T04:53:36.357Z,28.40
2022-11-25T04:58:56.296Z,33.00
2022-11-25T05:03:57.793Z,26.73
2022-11-25T05:09:00.546Z,25.23
2022-11-25T05:14:04.162Z,26.25
2022-11-25T05:19:05.654Z,21.88
2022-11-25T05:24:06.860Z,27.60
2022-11-25T05:29:11.450Z,23.58
2022-11-25T05:34:12.350Z,20.23
2022-11-25T05:39:13.815Z,19.38
2022-11-25T05:44:38.672Z,21.98
2022-11-25T05:49:39.712Z,18.63
2022-11-25T05:54:41.254Z,19.70
2022-11-25T05:59:44.291Z,18.75
2022-11-25T06:04:52.771Z,18.90
2022-11-25T06:09:53.610Z,20.67
2022-11-25T06:14:56.018Z,22.50
2022-11-25T06:19:56.936Z,21.10
2022-11-25T06:25:03.387Z,18.25
2022-11-25T06:30:09.291Z,22.73
2022-11-25T06:35:11.645Z,23.08
2022-11-25T06:40:20.853Z,19.15
2022-11-25T06:45:23.023Z,25.38
2022-11-25T06:50:24.338Z,22.92
2022-11-25T06:55:25.139Z,22.27
2022-11-25T07:00:27.579Z,26.60
2022-11-25T07:05:28.437Z,21.63
2022-11-25T07:10:29.344Z,24.02
2022-11-25T07:15:31.536Z,22.00
2022-11-25T07:20:32.807Z,29.40
2022-11-25T07:25:34.283Z,25.90
2022-11-25T07:35:57.213Z,24.23
2022-11-25T07:40:58.125Z,25.92
2022-11-25T07:46:10.020Z,28.48
2022-11-25T07:51:18.735Z,26.40
2022-11-25T07:56:21.135Z,25.83
2022-11-25T08:01:23.574Z,27.23
2022-11-25T08:06:26.583Z,25.40
2022-11-25T08:11:29.889Z,25.45
2022-11-25T08:16:33.018Z,26.25
2022-11-25T08:21:34.512Z,27.67
2022-11-25T08:26:37.764Z,27.42
2022-11-25T08:31:39.991Z,24.23
2022-11-25T08:36:46.564Z,24.50
2022-11-25T08:41:54.228Z,25.02
2022-11-25T08:46:57.369Z,23.77
2022-11-25T08:51:58.464Z,21.75
2022-11-25T08:57:00.713Z,23.20
2022-11-25T09:02:03.294Z,26.08
2022-11-25T09:07:05.585Z,24.65
2022-11-25T09:12:06.678Z,28.25
2022-11-25T09:17:12.114Z,21.10
2022-11-25T09:22:12.935Z,24.42
2022-11-25T09:27:13.754Z,24.02
2022-11-25T09:32:15.972Z,29.15
2022-11-25T09:37:16.821Z,21.00
2022-11-25T09:42:49.464Z,20.08
2022-11-25T09:48:01.661Z,20.23
2022-11-25T09:53:10.727Z,22.50
2022-11-25T09:58:22.627Z,24.45
2022-11-25T10:03:35.730Z,22.73
2022-11-25T10:08:40.460Z,22.13
2022-11-25T10:13:47.935Z,17.50
2022-11-25T10:19:02.091Z,24.45
2022-11-25T10:24:05.003Z,21.70
2022-11-25T10:29:23.000Z,19.42
2022-11-25T10:34:37.283Z,19.58
2022-11-25T10:39:38.301Z,17.55
2022-11-25T10:44:41.111Z,15.68
2022-11-25T10:49:52.016Z,15.00
2022-11-25T10:55:08.790Z,15.73
2022-11-25T11:00:26.588Z,20.25
2022-11-25T11:05:30.322Z,16.52
2022-11-25T11:10:31.154Z,16.88
2022-11-25T11:15:33.767Z,15.60
2022-11-25T11:20:36.185Z,13.18
2022-11-25T11:25:38.534Z,13.00
2022-11-25T11:30:56.547Z,15.77
2022-11-25T11:36:12.554Z,14.90
2022-11-25T11:41:23.663Z,17.55
2022-11-25T11:46:34.162Z,13.65
2022-11-25T11:51:45.381Z,14.43
2022-11-25T11:56:55.016Z,15.95
2022-11-25T12:02:13.962Z,13.25
2022-11-25T12:07:22.304Z,16.77
2022-11-25T12:12:35.061Z,13.60
2022-11-25T12:17:45.082Z,17.45
2022-11-25T12:22:54.908Z,15.18
2022-11-25T12:28:01.623Z,16.92
2022-11-25T12:33:11.636Z,14.05
2022-11-25T12:38:29.381Z,16.48
2022-11-25T12:43:39.981Z,14.98
2022-11-25T12:48:43.715Z,17.77
2022-11-25T12:53:53.105Z,18.13
2022-11-25T12:59:07.708Z,9.95
2022-11-25T13:04:32.589Z,14.75
2022-11-25T13:09:55.680Z,12.77
2022-11-25T13:15:21.487Z,17.80
2022-11-25T13:20:46.046Z,12.05
2022-11-25T13:25:49.828Z,17.00
2022-11-25T13:30:51.887Z,17.08
2022-11-25T13:35:54.223Z,13.35
2022-11-25T13:46:36.126Z,16.60
2022-11-25T13:51:37.947Z,22.00
2022-11-25T13:56:39.027Z,18.85
2022-11-25T14:01:42.494Z,19.65
2022-11-25T14:07:06.590Z,17.15
2022-11-25T14:12:38.750Z,17.65
2022-11-25T14:18:04.819Z,18.42
2022-11-25T14:23:37.353Z,18.13
2022-11-25T14:28:45.239Z,25.45
2022-11-25T14:33:54.660Z,18.17
2022-11-25T14:38:59.787Z,37.20
2022-11-25T14:44:05.848Z,32.17
2022-11-25T14:49:30.692Z,20.42
2022-11-25T14:54:29.835Z,20.35
2022-11-25T14:59:30.715Z,19.08
2022-11-25T15:04:34.633Z,23.92
2022-11-25T15:09:43.135Z,25.60
2022-11-25T15:14:49.703Z,29.33
2022-11-25T15:19:53.016Z,26.15
2022-11-25T15:24:56.483Z,27.38
2022-11-25T15:29:58.993Z,27.95
2022-11-25T15:35:03.238Z,31.13
2022-11-25T15:40:30.940Z,32.42
2022-11-25T15:45:38.225Z,27.17
2022-11-25T15:50:41.500Z,32.45
2022-11-25T15:55:42.339Z,38.03
2022-11-25T16:00:43.213Z,31.65
2022-11-25T16:05:56.880Z,32.88
2022-11-25T16:11:00.403Z,32.78
2022-11-25T16:16:09.413Z,29.95
2022-11-25T16:21:14.675Z,29.52
2022-11-25T16:26:19.576Z,31.83
2022-11-25T16:31:20.474Z,28.80
2022-11-25T16:36:23.002Z,29.05
2022-11-25T16:41:26.921Z,31.45
2022-11-25T16:46:28.476Z,32.85
2022-11-25T16:51:30.752Z,39.47
2022-11-25T16:56:31.812Z,41.47
2022-11-25T17:01:35.305Z,37.33
2022-11-25T17:06:37.866Z,36.30
2022-11-25T17:11:46.715Z,39.05
2022-11-25T17:16:47.860Z,36.55
2022-11-25T17:21:50.069Z,33.45
2022-11-25T17:26:54.501Z,37.17
2022-11-25T17:31:58.636Z,35.85
2022-11-25T17:37:01.101Z,36.53
2022-11-25T17:42:02.654Z,42.67
2022-11-25T17:47:03.556Z,40.95
2022-11-25T17:52:06.502Z,46.55
2022-11-25T17:57:11.073Z,40.75
2022-11-25T18:02:18.623Z,36.33
2022-11-25T18:07:20.939Z,40.20
2022-11-25T18:12:28.056Z,42.92
2022-11-25T18:17:28.872Z,38.70
2022-11-25T18:22:31.434Z,51.28
2022-11-25T18:27:32.391Z,44.85
2022-11-25T18:32:33.204Z,39.10
2022-11-25T18:37:35.437Z,40.33
2022-11-25T18:42:36.241Z,42.00
2022-11-25T18:47:37.055Z,38.00
2022-11-25T18:52:39.188Z,42.65
2022-11-25T18:57:40.828Z,44.53
2022-11-25T19:02:41.819Z,34.95
2022-11-25T19:07:44.112Z,52.53
2022-11-25T19:12:48.227Z,41.38
2022-11-25T19:17:53.083Z,44.78
2022-11-25T19:23:00.290Z,41.90
2022-11-25T19:28:02.354Z,44.75
2022-11-25T19:33:03.735Z,44.63
2022-11-25T19:38:14.637Z,48.75
2022-11-25T19:43:15.548Z,42.80
2022-11-25T19:48:19.285Z,51.42
2022-11-25T19:53:22.976Z,37.38
2022-11-25T19:58:24.000Z,46.22
2022-11-25T20:03:27.999Z,47.85
2022-11-25T20:08:30.204Z,56.90
2022-11-25T20:13:31.136Z,45.40
2022-11-25T20:18:32.029Z,46.95
2022-11-25T20:23:43.378Z,47.88
2022-11-25T20:28:44.733Z,48.40
2022-11-25T20:33:45.644Z,52.67
2022-11-25T20:38:52.789Z,44.63
2022-11-25T20:43:54.248Z,49.60
2022-11-25T20:48:57.676Z,44.65
2022-11-25T20:54:01.985Z,45.50
2022-11-25T20:59:02.856Z,44.60
2022-11-25T21:04:03.703Z,47.08
2022-11-25T21:09:05.916Z,44.28
2022-11-25T21:14:13.133Z,53.10
2022-11-25T21:19:14.975Z,46.67
2022-11-25T21:24:31.115Z,41.80
2022-11-25T21:29:32.500Z,51.33
2022-11-25T21:34:33.344Z,42.47
2022-11-25T21:39:35.526Z,42.72
2022-11-25T21:44:40.649Z,47.17
2022-11-25T21:49:41.587Z,51.90
2022-11-25T21:54:44.378Z,48.53
2022-11-25T21:59:46.819Z,50.05
2022-11-25T22:04:50.761Z,40.47
2022-11-25T22:09:52.967Z,47.45
2022-11-25T22:14:54.367Z,52.25
2022-11-25T22:19:55.454Z,48.15
2022-11-25T22:24:57.578Z,47.83
2022-11-25T22:29:58.492Z,43.00
2022-11-25T22:34:59.294Z,50.67
2022-11-25T22:40:01.464Z,37.90
2022-11-25T22:45:05.288Z,35.05
2022-11-25T22:50:14.000Z,36.05
2022-11-25T22:55:20.343Z,37.03
2022-11-25T23:00:27.082Z,34.08
2022-11-25T23:05:33.043Z,34.22
2022-11-25T23:10:35.541Z,32.90
2022-11-25T23:15:36.817Z,31.95
2022-11-25T23:20:39.271Z,29.70
2022-11-25T23:25:41.534Z,32.63
2022-11-25T23:30:47.936Z,26.48
2022-11-25T23:35:48.866Z,33.67
2022-11-25T23:40:51.085Z,27.75
2022-11-25T23:45:54.555Z,32.35
2022-11-25T23:50:58.456Z,21.02
2022-11-25T23:56:00.732Z,25.60
